Time;durP1;ratioP1;P1;durP2;ratioP2;P2;SDS_P1;SDS_P2;PMS_P1;PMS_P2;Temp;Humidity;BMP_temperature;BMP_pressure;BME280_temperature;BME280_humidity;BME280_pressure;Samples;Min_cycle;Max_cycle;Signal;HPM_P1;HPM_P2
2023/09/02 00:00:00;;;;;;;;;;;12.90;69.40;;;;;;4148029;28;19997;-83
2023/09/02 00:02:20;;;;;;;;;;;13.00;69.40;;;;;;4141040;28;19945;-85
2023/09/02 00:04:39;;;;;;;;;;;12.90;69.50;;;;;;4153485;28;19927;-84
2023/09/02 00:06:58;;;;;;;;;;;12.80;69.40;;;;;;4145822;28;19924;-84
2023/09/02 00:09:17;;;;;;;;;;;12.80;69.60;;;;;;4147414;28;20378;-85
2023/09/02 00:11:37;;;;;;;;;;;12.80;69.80;;;;;;4145259;28;19972;-84
2023/09/02 00:13:56;;;;;;;;;;;12.80;69.80;;;;;;4148411;28;19967;-84
2023/09/02 00:16:17;;;;;;;;;;;12.80;70.50;;;;;;4151135;28;19924;-84
2023/09/02 00:18:35;;;;;;;;;;;12.70;70.10;;;;;;4151805;28;19921;-84
2023/09/02 00:20:55;;;;;;;;;;;12.80;70.10;;;;;;4144719;28;19996;-85
2023/09/02 00:23:14;;;;;;;;;;;12.80;69.40;;;;;;4146514;28;19940;-85
2023/09/02 00:25:33;;;;;;;;;;;12.80;69.50;;;;;;4149480;28;20000;-85
2023/09/02 00:27:53;;;;;;;;;;;12.70;69.20;;;;;;4169378;28;19937;-85
2023/09/02 00:30:12;;;;;;;;;;;12.70;69.30;;;;;;4155210;28;19967;-84
2023/09/02 00:32:33;;;;;;;;;;;12.70;69.50;;;;;;4144401;28;19920;-84
2023/09/02 00:34:53;;;;;;;;;;;12.70;69.30;;;;;;4141566;28;20398;-84
2023/09/02 00:37:12;;;;;;;;;;;12.70;69.30;;;;;;4152989;28;20005;-83
2023/09/02 00:39:31;;;;;;;;;;;12.70;69.40;;;;;;4149236;28;19956;-84
2023/09/02 00:41:53;;;;;;;;;;;12.60;69.40;;;;;;4159277;28;19923;-84
2023/09/02 00:44:12;;;;;;;;;;;12.60;69.60;;;;;;4146608;28;19955;-84
2023/09/02 00:46:31;;;;;;;;;;;12.60;69.70;;;;;;4142617;28;19923;-84
2023/09/02 00:48:51;;;;;;;;;;;12.60;70.70;;;;;;4147950;28;20016;-84
2023/09/02 00:51:10;;;;;;;;;;;12.60;70.00;;;;;;4151007;28;19936;-85
2023/09/02 00:53:29;;;;;;;;;;;12.60;70.10;;;;;;4138720;28;20445;-85
2023/09/02 00:55:30;;;;;;;;;;;12.60;70.30;;;;;;4146476;28;19917;-84
2023/09/02 00:57:31;;;;;;;;;;;12.60;70.30;;;;;;4151787;28;19918;-84
2023/09/02 00:59:31;;;;;;;;;;;12.60;70.30;;;;;;4144634;28;19914;-85
2023/09/02 01:01:33;;;;;;;;;;;12.60;70.40;;;;;;4142219;28;19921;-84
2023/09/02 01:03:35;;;;;;;;;;;12.70;70.70;;;;;;4144488;28;19962;-84
2023/09/02 01:05:36;;;;;;;;;;;12.60;70.70;;;;;;4146095;28;19960;-84
2023/09/02 01:07:36;;;;;;;;;;;12.70;70.80;;;;;;4147358;28;19917;-84
2023/09/02 01:09:37;;;;;;;;;;;12.60;70.70;;;;;;4151569;28;19913;-84
2023/09/02 01:11:37;;;;;;;;;;;12.70;70.90;;;;;;4147398;28;20603;-84
2023/09/02 01:13:38;;;;;;;;;;;12.60;71.00;;;;;;4150542;28;19922;-84
2023/09/02 01:15:39;;;;;;;;;;;12.60;71.00;;;;;;4145064;28;19928;-83
2023/09/02 01:17:39;;;;;;;;;;;12.60;70.90;;;;;;4154885;28;19917;-84
2023/09/02 01:19:40;;;;;;;;;;;12.60;71.20;;;;;;4159781;28;19917;-85
2023/09/02 01:21:55;;;;;;;;;;;12.60;71.30;;;;;;4160230;28;19949;-84
2023/09/02 01:24:10;;;;;;;;;;;12.50;71.40;;;;;;4154774;28;19925;-84
2023/09/02 01:26:13;;;;;;;;;;;12.50;71.50;;;;;;4169414;28;19914;-84
2023/09/02 01:28:18;;;;;;;;;;;12.50;71.20;;;;;;4170921;28;20044;-84
2023/09/02 01:30:19;;;;;;;;;;;12.60;71.40;;;;;;4170322;28;19929;-84
2023/09/02 01:32:21;;;;;;;;;;;12.50;71.30;;;;;;4165222;28;19913;-85
2023/09/02 01:34:21;;;;;;;;;;;12.50;71.40;;;;;;4157007;28;19901;-85
2023/09/02 01:36:22;;;;;;;;;;;12.60;71.60;;;;;;4162049;28;19921;-84
2023/09/02 01:38:24;;;;;;;;;;;12.50;71.40;;;;;;4151219;28;19964;-84
2023/09/02 01:40:26;;;;;;;;;;;12.60;71.50;;;;;;4149399;28;19917;-84
2023/09/02 01:42:27;;;;;;;;;;;12.50;71.50;;;;;;4148951;28;19919;-84
2023/09/02 01:44:29;;;;;;;;;;;12.50;71.40;;;;;;4157400;28;20083;-84
2023/09/02 01:46:30;;;;;;;;;;;12.50;71.40;;;;;;4151700;28;19925;-84
2023/09/02 01:48:30;;;;;;;;;;;12.50;71.10;;;;;;4153433;28;19961;-84
2023/09/02 01:50:32;;;;;;;;;;;12.50;71.00;;;;;;4152198;28;19913;-84
2023/09/02 01:52:33;;;;;;;;;;;12.50;71.10;;;;;;4153336;28;19918;-84
2023/09/02 01:54:34;;;;;;;;;;;12.50;71.10;;;;;;4154350;28;20481;-84
2023/09/02 01:56:35;;;;;;;;;;;12.50;71.20;;;;;;4149780;28;19924;-84
2023/09/02 01:58:35;;;;;;;;;;;12.50;71.40;;;;;;4150056;28;19963;-85
2023/09/02 02:00:38;;;;;;;;;;;12.50;71.40;;;;;;4147248;28;20446;-85
2023/09/02 02:02:39;;;;;;;;;;;12.50;71.40;;;;;;4152506;28;19922;-85
2023/09/02 02:04:42;;;;;;;;;;;12.50;71.50;;;;;;4146570;28;20555;-84
2023/09/02 02:06:43;;;;;;;;;;;12.50;71.60;;;;;;4145344;28;20004;-85
2023/09/02 02:08:49;;;;;;;;;;;12.50;71.90;;;;;;4150508;28;19968;-85
2023/09/02 02:10:52;;;;;;;;;;;12.50;72.10;;;;;;4148961;28;19918;-84
2023/09/02 02:12:52;;;;;;;;;;;12.50;72.10;;;;;;4149051;28;19966;-84
2023/09/02 02:14:56;;;;;;;;;;;12.50;72.00;;;;;;4145249;28;20380;-84
2023/09/02 02:16:57;;;;;;;;;;;12.50;72.00;;;;;;4150909;28;19920;-84
2023/09/02 02:18:58;;;;;;;;;;;12.50;71.90;;;;;;4151903;28;19921;-85
2023/09/02 02:21:00;;;;;;;;;;;12.50;71.80;;;;;;4148831;28;19961;-84
2023/09/02 02:23:01;;;;;;;;;;;12.50;71.80;;;;;;4147021;28;19921;-84
2023/09/02 02:25:01;;;;;;;;;;;12.50;71.90;;;;;;4146414;28;20004;-84
2023/09/02 02:27:02;;;;;;;;;;;12.40;72.00;;;;;;4149384;28;19920;-85
2023/09/02 02:29:03;;;;;;;;;;;12.50;72.10;;;;;;4147589;28;19920;-85
2023/09/02 02:31:04;;;;;;;;;;;12.50;72.40;;;;;;4153667;28;20506;-83
2023/09/02 02:33:04;;;;;;;;;;;12.50;72.40;;;;;;4151341;28;19925;-84
2023/09/02 02:35:05;;;;;;;;;;;12.40;72.30;;;;;;4145276;28;19921;-84
2023/09/02 02:37:06;;;;;;;;;;;12.40;72.30;;;;;;4152841;28;19932;-84
2023/09/02 02:39:07;;;;;;;;;;;12.40;72.30;;;;;;4147683;28;19921;-85
2023/09/02 02:41:07;;;;;;;;;;;12.30;72.50;;;;;;4145479;28;19914;-85
2023/09/02 02:43:08;;;;;;;;;;;12.40;72.80;;;;;;4148716;28;20615;-84
2023/09/02 02:45:09;;;;;;;;;;;12.30;72.70;;;;;;4140103;28;19917;-84
2023/09/02 02:47:09;;;;;;;;;;;12.30;72.90;;;;;;4151401;28;19921;-84
2023/09/02 02:49:11;;;;;;;;;;;12.30;72.90;;;;;;4155280;28;20015;-84
2023/09/02 02:51:12;;;;;;;;;;;12.30;72.80;;;;;;4153103;28;19917;-84
2023/09/02 02:53:13;;;;;;;;;;;12.40;72.80;;;;;;4150216;28;20015;-84
2023/09/02 02:55:13;;;;;;;;;;;12.30;72.70;;;;;;4145200;28;19921;-85
2023/09/02 02:57:14;;;;;;;;;;;12.30;72.60;;;;;;4145682;28;19921;-85
2023/09/02 02:59:16;;;;;;;;;;;12.30;73.00;;;;;;4168824;28;19905;-84
2023/09/02 03:01:17;;;;;;;;;;;12.30;72.90;;;;;;4164492;28;19928;-84
2023/09/02 03:03:20;;;;;;;;;;;12.20;73.20;;;;;;4154656;28;19952;-84
2023/09/02 03:05:21;;;;;;;;;;;12.30;73.30;;;;;;4151062;28;19949;-84
2023/09/02 03:07:22;;;;;;;;;;;12.30;73.20;;;;;;4150615;28;19921;-84
2023/09/02 03:09:23;;;;;;;;;;;12.30;73.20;;;;;;4154792;28;19921;-85
2023/09/02 03:11:23;;;;;;;;;;;12.20;73.10;;;;;;4158376;28;19914;-84
2023/09/02 03:13:28;;;;;;;;;;;12.20;73.00;;;;;;4150772;28;19932;-84
2023/09/02 03:15:29;;;;;;;;;;;12.30;73.10;;;;;;4145604;28;19929;-83
2023/09/02 03:17:30;;;;;;;;;;;12.20;73.10;;;;;;4150557;28;19922;-84
2023/09/02 03:19:30;;;;;;;;;;;12.20;73.00;;;;;;4149857;28;19928;-84
2023/09/02 03:21:31;;;;;;;;;;;12.20;73.00;;;;;;4149730;28;20007;-84
2023/09/02 03:23:35;;;;;;;;;;;12.20;72.90;;;;;;4154495;28;19924;-85
2023/09/02 03:25:37;;;;;;;;;;;12.20;72.90;;;;;;4162874;28;19998;-85
2023/09/02 03:27:38;;;;;;;;;;;12.20;73.00;;;;;;4151492;28;21004;-84
2023/09/02 03:29:39;;;;;;;;;;;12.30;73.00;;;;;;4146728;28;19917;-84
2023/09/02 03:31:39;;;;;;;;;;;12.20;72.90;;;;;;4147715;28;20361;-83
2023/09/02 03:33:40;;;;;;;;;;;12.10;72.90;;;;;;4148582;28;19917;-84
2023/09/02 03:35:40;;;;;;;;;;;12.10;72.90;;;;;;4147225;28;20315;-84
2023/09/02 03:37:42;;;;;;;;;;;12.10;73.00;;;;;;4150338;28;19917;-84
2023/09/02 03:39:43;;;;;;;;;;;12.10;72.90;;;;;;4146589;28;19921;-84
2023/09/02 03:41:47;;;;;;;;;;;12.20;73.00;;;;;;4146294;28;19921;-85
2023/09/02 03:43:47;;;;;;;;;;;12.10;72.90;;;;;;4146575;28;19975;-83
2023/09/02 03:45:51;;;;;;;;;;;12.10;73.20;;;;;;4148889;28;19925;-84
2023/09/02 03:47:51;;;;;;;;;;;12.20;72.90;;;;;;4150606;28;20410;-84
2023/09/02 03:49:52;;;;;;;;;;;12.10;72.90;;;;;;4141634;28;19921;-84
2023/09/02 03:51:52;;;;;;;;;;;12.10;72.90;;;;;;4149626;28;19924;-84
2023/09/02 03:53:53;;;;;;;;;;;12.10;72.90;;;;;;4149964;28;19921;-84
2023/09/02 03:55:54;;;;;;;;;;;12.10;73.00;;;;;;4147376;28;19921;-84
2023/09/02 03:57:54;;;;;;;;;;;12.00;73.00;;;;;;4155576;28;20403;-84
2023/09/02 03:59:55;;;;;;;;;;;12.00;73.00;;;;;;4145573;28;19917;-84
2023/09/02 04:01:56;;;;;;;;;;;12.00;73.00;;;;;;4151114;28;19922;-83
2023/09/02 04:03:56;;;;;;;;;;;12.00;73.00;;;;;;4146981;28;19932;-84
2023/09/02 04:05:57;;;;;;;;;;;12.00;73.10;;;;;;4150296;28;19929;-84
2023/09/02 04:07:58;;;;;;;;;;;12.10;73.20;;;;;;4150857;28;20020;-84
2023/09/02 04:09:58;;;;;;;;;;;12.10;73.30;;;;;;4151590;28;19923;-84
2023/09/02 04:12:15;;;;;;;;;;;12.00;73.20;;;;;;4148482;28;19913;-84
2023/09/02 04:14:35;;;;;;;;;;;12.10;73.40;;;;;;4145423;28;20375;-84
2023/09/02 04:16:36;;;;;;;;;;;12.00;73.50;;;;;;4152979;28;19920;-83
2023/09/02 04:19:02;;;;;;;;;;;12.00;74.20;;;;;;4156792;28;19913;-84
2023/09/02 04:21:08;;;;;;;;;;;12.00;74.00;;;;;;4129683;28;20436;-84
2023/09/02 04:23:29;;;;;;;;;;;11.90;74.00;;;;;;4158976;28;19921;-83
2023/09/02 04:25:51;;;;;;;;;;;12.00;73.80;;;;;;4148420;28;20002;-84
2023/09/02 04:28:11;;;;;;;;;;;12.10;73.50;;;;;;4149803;28;19924;-84
2023/09/02 04:30:32;;;;;;;;;;;12.00;73.40;;;;;;4147946;28;20359;-84
2023/09/02 04:32:52;;;;;;;;;;;12.00;73.50;;;;;;4148405;28;20406;-84
2023/09/02 04:35:13;;;;;;;;;;;12.10;73.70;;;;;;4150427;28;19910;-84
2023/09/02 04:37:33;;;;;;;;;;;12.10;73.90;;;;;;4152428;28;20375;-84
2023/09/02 04:39:54;;;;;;;;;;;12.10;74.00;;;;;;4151505;28;19947;-84
2023/09/02 04:42:14;;;;;;;;;;;12.00;73.80;;;;;;4148333;28;19913;-84
2023/09/02 04:44:35;;;;;;;;;;;12.10;73.90;;;;;;4142025;28;19952;-84
2023/09/02 04:46:55;;;;;;;;;;;12.00;73.70;;;;;;4151136;28;19925;-84
2023/09/02 04:49:16;;;;;;;;;;;12.10;73.90;;;;;;4151555;28;20000;-83
2023/09/02 04:51:37;;;;;;;;;;;12.10;74.30;;;;;;4148648;28;20013;-85
2023/09/02 04:53:57;;;;;;;;;;;12.00;74.50;;;;;;4150581;28;19967;-85
2023/09/02 04:56:18;;;;;;;;;;;12.10;74.50;;;;;;4156666;28;19940;-84
2023/09/02 04:58:39;;;;;;;;;;;12.10;74.50;;;;;;4152604;28;19929;-85
2023/09/02 05:01:09;;;;;;;;;;;12.10;74.50;;;;;;4151249;28;19917;-84
2023/09/02 05:03:30;;;;;;;;;;;12.00;74.80;;;;;;4154397;28;19971;-85
2023/09/02 05:05:51;;;;;;;;;;;12.10;75.00;;;;;;4155581;28;19923;-86
2023/09/02 05:08:11;;;;;;;;;;;12.10;75.50;;;;;;4142957;28;19924;-85
2023/09/02 05:10:32;;;;;;;;;;;12.10;74.90;;;;;;4142171;28;19944;-84
2023/09/02 05:12:52;;;;;;;;;;;12.10;75.20;;;;;;4146678;28;19943;-86
2023/09/02 05:15:13;;;;;;;;;;;12.20;75.40;;;;;;4141474;28;20043;-86
2023/09/02 05:17:33;;;;;;;;;;;12.20;75.10;;;;;;4147306;28;19940;-84
2023/09/02 05:19:54;;;;;;;;;;;12.10;75.30;;;;;;4142540;28;19917;-85
2023/09/02 05:22:15;;;;;;;;;;;12.20;75.30;;;;;;4142492;28;19918;-84
2023/09/02 05:24:35;;;;;;;;;;;12.20;75.60;;;;;;4145117;28;20025;-86
2023/09/02 05:26:56;;;;;;;;;;;12.30;75.50;;;;;;4146147;28;19924;-85
2023/09/02 05:29:16;;;;;;;;;;;12.30;76.20;;;;;;4162056;28;19920;-86
2023/09/02 05:31:37;;;;;;;;;;;12.30;75.30;;;;;;4144610;28;19913;-85
2023/09/02 05:33:57;;;;;;;;;;;12.30;75.30;;;;;;4144342;28;19949;-84
2023/09/02 05:36:18;;;;;;;;;;;12.40;75.60;;;;;;4138584;28;19976;-85
2023/09/02 05:38:38;;;;;;;;;;;12.40;75.80;;;;;;4142332;28;19948;-85
2023/09/02 05:40:59;;;;;;;;;;;12.50;76.00;;;;;;4141449;28;19967;-85
2023/09/02 05:43:19;;;;;;;;;;;12.60;76.10;;;;;;4130188;28;19930;-86
2023/09/02 05:45:40;;;;;;;;;;;12.60;76.00;;;;;;4136987;28;19964;-84
2023/09/02 05:48:00;;;;;;;;;;;12.70;76.10;;;;;;4137103;28;19917;-85
2023/09/02 05:50:19;;;;;;;;;;;12.70;76.20;;;;;;4141639;28;19992;-85
2023/09/02 05:52:39;;;;;;;;;;;12.80;76.30;;;;;;4140229;28;20151;-85
2023/09/02 05:54:58;;;;;;;;;;;12.90;76.20;;;;;;4148540;28;19924;-85
2023/09/02 05:57:18;;;;;;;;;;;13.10;76.60;;;;;;4148318;28;20650;-85
2023/09/02 05:59:37;;;;;;;;;;;13.10;76.80;;;;;;4144026;28;20303;-85
2023/09/02 06:01:58;;;;;;;;;;;13.10;76.60;;;;;;4148508;28;20286;-84
2023/09/02 06:04:17;;;;;;;;;;;13.10;76.70;;;;;;4164085;28;19944;-86
2023/09/02 06:06:36;;;;;;;;;;;13.20;77.10;;;;;;4146092;28;20043;-84
2023/09/02 06:08:56;;;;;;;;;;;13.40;77.10;;;;;;4150319;28;20402;-85
2023/09/02 06:11:15;;;;;;;;;;;13.40;77.20;;;;;;4162255;28;19923;-86
2023/09/02 06:13:35;;;;;;;;;;;13.60;77.10;;;;;;4150630;28;19972;-85
2023/09/02 06:16:01;;;;;;;;;;;13.60;77.70;;;;;;4145875;28;20552;-84
2023/09/02 06:18:20;;;;;;;;;;;13.70;77.60;;;;;;4152288;28;19937;-85
2023/09/02 06:20:40;;;;;;;;;;;13.70;76.90;;;;;;4147428;28;20000;-85
2023/09/02 06:22:59;;;;;;;;;;;13.80;77.00;;;;;;4147507;28;19932;-86
2023/09/02 06:25:18;;;;;;;;;;;13.90;77.40;;;;;;4160052;28;19924;-86
2023/09/02 06:27:38;;;;;;;;;;;14.00;78.40;;;;;;4172447;28;20002;-85
2023/09/02 06:29:57;;;;;;;;;;;14.20;77.70;;;;;;4166257;28;19916;-85
2023/09/02 06:32:16;;;;;;;;;;;14.20;77.80;;;;;;4170830;28;20076;-85
2023/09/02 06:34:35;;;;;;;;;;;14.40;78.00;;;;;;4147756;28;19932;-85
2023/09/02 06:36:54;;;;;;;;;;;14.40;77.70;;;;;;4147294;28;19928;-85
2023/09/02 06:39:14;;;;;;;;;;;14.40;77.20;;;;;;4149703;28;20003;-86
2023/09/02 06:41:33;;;;;;;;;;;14.50;76.90;;;;;;4149834;28;19920;-86
2023/09/02 06:43:52;;;;;;;;;;;14.60;76.70;;;;;;4148583;28;19979;-85
2023/09/02 06:46:16;;;;;;;;;;;14.70;76.60;;;;;;4147001;28;20016;-85
2023/09/02 06:48:35;;;;;;;;;;;14.80;76.70;;;;;;4160110;28;19928;-86
2023/09/02 06:50:54;;;;;;;;;;;14.80;76.90;;;;;;4155985;28;19959;-85
2023/09/02 06:53:14;;;;;;;;;;;14.90;76.60;;;;;;4146848;28;19984;-85
2023/09/02 06:55:33;;;;;;;;;;;15.00;76.30;;;;;;4145107;28;19933;-86
2023/09/02 06:57:52;;;;;;;;;;;15.10;76.60;;;;;;4143642;28;20321;-85
2023/09/02 07:00:12;;;;;;;;;;;15.20;76.40;;;;;;4145770;28;19919;-84
2023/09/02 07:02:31;;;;;;;;;;;15.20;76.50;;;;;;4143737;28;19983;-86
2023/09/02 07:04:50;;;;;;;;;;;15.40;76.60;;;;;;4142213;28;19944;-86
2023/09/02 07:07:09;;;;;;;;;;;15.40;76.60;;;;;;4144976;28;20390;-86
2023/09/02 07:09:28;;;;;;;;;;;15.40;76.50;;;;;;4151940;28;19976;-85
2023/09/02 07:11:47;;;;;;;;;;;15.50;76.60;;;;;;4144597;28;19929;-85
2023/09/02 07:14:07;;;;;;;;;;;15.60;76.90;;;;;;4144562;28;20507;-85
2023/09/02 07:16:26;;;;;;;;;;;15.70;76.90;;;;;;4139236;28;20013;-85
2023/09/02 07:18:46;;;;;;;;;;;15.70;76.90;;;;;;4145745;28;19986;-87
2023/09/02 07:21:11;;;;;;;;;;;15.80;77.00;;;;;;4149689;28;19960;-87
2023/09/02 07:23:31;;;;;;;;;;;15.90;76.90;;;;;;4142343;28;19995;-86
2023/09/02 07:25:50;;;;;;;;;;;16.00;76.90;;;;;;4141633;28;19936;-86
2023/09/02 07:28:09;;;;;;;;;;;16.10;77.60;;;;;;4140893;28;20427;-88
2023/09/02 07:30:28;;;;;;;;;;;16.20;77.40;;;;;;4135302;28;20000;-85
2023/09/02 07:32:48;;;;;;;;;;;16.10;77.60;;;;;;4145782;28;19921;-88
2023/09/02 07:38:07;;;;;;;;;;;16.30;77.60;;;;;;4172990;23;19926;-87
2023/09/02 07:40:26;;;;;;;;;;;16.40;77.40;;;;;;4146138;28;19932;-87
2023/09/02 07:42:46;;;;;;;;;;;16.40;77.40;;;;;;4153763;28;19944;-86
2023/09/02 07:45:05;;;;;;;;;;;16.50;77.30;;;;;;4149354;28;19920;-86
2023/09/02 07:47:24;;;;;;;;;;;16.50;77.20;;;;;;4146206;28;21295;-87
2023/09/02 07:49:43;;;;;;;;;;;16.60;77.10;;;;;;4141673;28;19940;-86
2023/09/02 07:52:03;;;;;;;;;;;16.60;77.00;;;;;;4143948;28;19924;-86
2023/09/02 07:54:22;;;;;;;;;;;16.70;77.00;;;;;;4147591;28;19943;-86
2023/09/02 07:56:41;;;;;;;;;;;16.80;76.90;;;;;;4144550;28;19932;-86
2023/09/02 07:59:00;;;;;;;;;;;16.80;77.50;;;;;;4148731;28;20473;-84
2023/09/02 08:01:20;;;;;;;;;;;16.90;76.60;;;;;;4144639;28;19924;-85
2023/09/02 08:03:39;;;;;;;;;;;17.10;76.70;;;;;;4152500;28;20467;-85
2023/09/02 08:06:03;;;;;;;;;;;17.00;76.20;;;;;;4145290;28;20339;-83
2023/09/02 08:08:23;;;;;;;;;;;17.10;76.00;;;;;;4160783;28;20405;-86
2023/09/02 08:10:42;;;;;;;;;;;17.10;76.60;;;;;;4155818;28;19931;-86
2023/09/02 08:13:01;;;;;;;;;;;17.20;75.40;;;;;;4147088;28;19972;-85
2023/09/02 08:15:20;;;;;;;;;;;17.30;75.40;;;;;;4144712;28;19929;-85
2023/09/02 08:17:41;;;;;;;;;;;17.30;75.40;;;;;;4143585;28;20074;-85
2023/09/02 08:20:00;;;;;;;;;;;17.50;75.60;;;;;;4146532;28;19925;-85
2023/09/02 08:22:19;;;;;;;;;;;17.40;75.40;;;;;;4146222;28;19952;-86
2023/09/02 08:24:38;;;;;;;;;;;17.50;75.20;;;;;;4151748;28;20351;-85
2023/09/02 08:26:58;;;;;;;;;;;17.60;75.20;;;;;;4152553;28;19996;-85
2023/09/02 08:29:17;;;;;;;;;;;17.50;74.90;;;;;;4149023;28;19920;-85
2023/09/02 08:31:36;;;;;;;;;;;17.70;75.00;;;;;;4151570;28;19945;-86
2023/09/02 08:33:56;;;;;;;;;;;17.80;75.00;;;;;;4155621;28;19924;-85
2023/09/02 08:36:16;;;;;;;;;;;17.80;74.60;;;;;;4151464;28;19932;-85
2023/09/02 08:38:35;;;;;;;;;;;17.90;74.20;;;;;;4154188;28;19924;-86
2023/09/02 08:40:54;;;;;;;;;;;17.90;74.90;;;;;;4153149;28;20472;-85
2023/09/02 08:43:14;;;;;;;;;;;18.10;73.90;;;;;;4149798;28;20338;-86
2023/09/02 08:45:33;;;;;;;;;;;18.00;72.60;;;;;;4145903;28;19925;-86
2023/09/02 08:47:55;;;;;;;;;;;18.10;72.50;;;;;;4145262;28;20017;-86
2023/09/02 08:50:16;;;;;;;;;;;18.20;72.30;;;;;;4147028;28;19928;-87
2023/09/02 08:52:35;;;;;;;;;;;18.20;71.30;;;;;;4148195;28;19942;-86
2023/09/02 08:54:54;;;;;;;;;;;18.30;71.50;;;;;;4144907;28;19924;-86
2023/09/02 08:57:16;;;;;;;;;;;18.40;71.60;;;;;;4148154;28;19944;-86
2023/09/02 08:59:35;;;;;;;;;;;18.40;71.80;;;;;;4146541;28;19927;-88
2023/09/02 09:01:54;;;;;;;;;;;18.50;71.20;;;;;;4143844;28;19925;-86
2023/09/02 09:04:14;;;;;;;;;;;18.50;71.00;;;;;;4150303;28;20481;-86
2023/09/02 09:06:35;;;;;;;;;;;18.50;70.80;;;;;;4144637;28;20283;-86
2023/09/02 09:08:55;;;;;;;;;;;18.60;70.80;;;;;;4148526;28;20368;-86
2023/09/02 09:11:18;;;;;;;;;;;18.70;70.30;;;;;;4148593;28;20021;-86
2023/09/02 09:13:39;;;;;;;;;;;18.70;70.00;;;;;;4147818;28;20025;-86
2023/09/02 09:15:59;;;;;;;;;;;18.80;69.70;;;;;;4148936;28;19970;-86
2023/09/02 09:18:18;;;;;;;;;;;18.90;70.70;;;;;;4160334;28;19975;-86
2023/09/02 09:20:38;;;;;;;;;;;18.90;69.30;;;;;;4153010;28;20004;-85
2023/09/02 09:22:57;;;;;;;;;;;19.00;68.60;;;;;;4151455;28;19971;-87
2023/09/02 09:25:17;;;;;;;;;;;19.10;69.20;;;;;;4149985;28;19919;-87
2023/09/02 09:27:36;;;;;;;;;;;19.20;69.10;;;;;;4148633;28;19987;-85
2023/09/02 09:29:56;;;;;;;;;;;19.20;68.80;;;;;;4145895;28;19936;-86
2023/09/02 09:32:15;;;;;;;;;;;19.30;67.40;;;;;;4151008;28;19924;-86
2023/09/02 09:34:35;;;;;;;;;;;19.30;66.70;;;;;;4145323;28;19928;-86
2023/09/02 09:36:57;;;;;;;;;;;19.40;65.90;;;;;;4148141;28;19979;-87
2023/09/02 09:39:16;;;;;;;;;;;19.40;66.30;;;;;;4163699;28;19928;-86
2023/09/02 09:41:43;;;;;;;;;;;19.40;66.40;;;;;;4160375;28;19919;-87
2023/09/02 09:44:14;;;;;;;;;;;19.50;64.10;;;;;;4153326;28;20135;-86
2023/09/02 09:46:53;;;;;;;;;;;19.40;64.50;;;;;;4146253;28;19920;-87
2023/09/02 09:49:28;;;;;;;;;;;19.50;64.40;;;;;;4149708;28;19924;-86
2023/09/02 09:51:47;;;;;;;;;;;19.50;64.10;;;;;;4153642;28;20068;-85
2023/09/02 09:54:07;;;;;;;;;;;19.50;64.10;;;;;;4155563;28;19962;-87
2023/09/02 09:56:26;;;;;;;;;;;19.50;63.60;;;;;;4156096;28;19924;-88
2023/09/02 09:58:46;;;;;;;;;;;19.50;63.50;;;;;;4151956;28;20329;-87
2023/09/02 10:01:08;;;;;;;;;;;19.60;62.10;;;;;;4154710;28;20398;-84
2023/09/02 10:03:33;;;;;;;;;;;19.70;62.90;;;;;;4152715;28;19932;-84
2023/09/02 10:05:57;;;;;;;;;;;19.60;62.70;;;;;;4151165;28;19964;-85
2023/09/02 10:08:16;;;;;;;;;;;19.60;62.60;;;;;;4153095;28;19920;-84
2023/09/02 10:10:36;;;;;;;;;;;19.70;62.80;;;;;;4146790;28;20425;-84
2023/09/02 10:12:57;;;;;;;;;;;19.80;63.00;;;;;;4166777;28;19920;-85
2023/09/02 10:15:24;;;;;;;;;;;19.70;62.60;;;;;;4150601;28;19943;-84
2023/09/02 10:17:44;;;;;;;;;;;19.80;62.50;;;;;;4153630;28;19963;-83
2023/09/02 10:20:04;;;;;;;;;;;19.80;62.30;;;;;;4154519;28;19968;-86
2023/09/02 10:22:27;;;;;;;;;;;19.80;61.90;;;;;;4153322;28;19964;-86
2023/09/02 10:25:02;;;;;;;;;;;19.90;62.40;;;;;;4155141;28;19939;-86
2023/09/02 10:27:22;;;;;;;;;;;19.80;61.40;;;;;;4150673;28;20022;-85
2023/09/02 10:29:43;;;;;;;;;;;19.90;61.90;;;;;;4153255;28;20413;-86
2023/09/02 10:32:15;;;;;;;;;;;19.90;61.90;;;;;;4154303;28;20007;-86
2023/09/02 10:34:43;;;;;;;;;;;19.90;61.90;;;;;;4149703;28;19932;-86
2023/09/02 10:37:04;;;;;;;;;;;19.90;61.00;;;;;;4152663;28;20087;-87
2023/09/02 10:39:50;;;;;;;;;;;19.90;61.30;;;;;;4158210;28;19966;-87
2023/09/02 10:42:10;;;;;;;;;;;19.90;61.30;;;;;;4152439;28;19975;-85
2023/09/02 10:44:30;;;;;;;;;;;20.00;60.80;;;;;;4155862;28;20456;-87
2023/09/02 10:46:53;;;;;;;;;;;20.10;60.00;;;;;;4147352;28;20028;-86
2023/09/02 10:49:12;;;;;;;;;;;20.10;60.70;;;;;;4153606;28;19943;-85
2023/09/02 10:51:32;;;;;;;;;;;20.10;61.20;;;;;;4151874;28;19932;-85
2023/09/02 10:53:51;;;;;;;;;;;20.10;60.20;;;;;;4153573;28;19928;-85
2023/09/02 10:56:23;;;;;;;;;;;20.10;60.20;;;;;;4150204;28;19924;-85
2023/09/02 10:58:47;;;;;;;;;;;20.20;59.10;;;;;;4153559;28;19919;-86
2023/09/02 11:01:06;;;;;;;;;;;20.20;60.10;;;;;;4152117;28;20548;-85
2023/09/02 11:03:42;;;;;;;;;;;20.20;58.80;;;;;;4149256;28;19948;-85
2023/09/02 11:06:05;;;;;;;;;;;20.20;58.40;;;;;;4149148;28;19924;-84
2023/09/02 11:08:40;;;;;;;;;;;20.30;58.60;;;;;;4155680;28;19924;-85
2023/09/02 11:11:00;;;;;;;;;;;20.30;57.80;;;;;;4150722;28;19924;-86
2023/09/02 11:13:19;;;;;;;;;;;20.30;58.20;;;;;;4155992;28;20067;-86
2023/09/02 11:15:38;;;;;;;;;;;20.30;58.30;;;;;;4150048;28;20060;-85
2023/09/02 11:18:17;;;;;;;;;;;20.30;58.30;;;;;;4152401;28;19920;-86
2023/09/02 11:20:49;;;;;;;;;;;20.30;58.00;;;;;;4154119;28;19924;-87
2023/09/02 11:23:20;;;;;;;;;;;20.40;57.60;;;;;;4171094;28;19925;-86
2023/09/02 11:25:39;;;;;;;;;;;20.40;57.80;;;;;;4170012;28;19912;-86
2023/09/02 11:28:00;;;;;;;;;;;20.40;56.00;;;;;;4168922;28;19932;-86
2023/09/02 11:30:20;;;;;;;;;;;20.50;57.10;;;;;;4150046;28;19932;-87
2023/09/02 11:32:43;;;;;;;;;;;20.40;57.40;;;;;;4154558;28;19924;-86
2023/09/02 11:35:03;;;;;;;;;;;20.50;57.60;;;;;;4151294;28;20425;-86
2023/09/02 11:37:30;;;;;;;;;;;20.50;56.50;;;;;;4150391;28;19927;-86
2023/09/02 11:39:49;;;;;;;;;;;20.40;55.50;;;;;;4144688;28;19940;-87
2023/09/02 11:42:09;;;;;;;;;;;20.40;55.80;;;;;;4144420;28;19932;-87
2023/09/02 11:44:29;;;;;;;;;;;20.50;54.90;;;;;;4149653;28;20429;-87
2023/09/02 11:46:48;;;;;;;;;;;20.50;55.40;;;;;;4150083;28;20425;-85
2023/09/02 11:49:23;;;;;;;;;;;20.50;54.70;;;;;;4149473;28;20465;-87
2023/09/02 11:51:42;;;;;;;;;;;20.60;55.60;;;;;;4149136;28;19925;-86
2023/09/02 11:54:01;;;;;;;;;;;20.60;55.50;;;;;;4147975;28;19929;-86
2023/09/02 11:56:21;;;;;;;;;;;20.60;56.10;;;;;;4150009;28;20660;-87
2023/09/02 11:58:40;;;;;;;;;;;20.70;56.40;;;;;;4149017;28;20287;-85
2023/09/02 12:01:00;;;;;;;;;;;20.80;56.20;;;;;;4143868;28;19928;-89
2023/09/02 12:03:23;;;;;;;;;;;20.90;55.20;;;;;;4143433;28;19928;-87
2023/09/02 12:05:47;;;;;;;;;;;20.90;55.80;;;;;;4139359;28;19955;-85
2023/09/02 12:08:09;;;;;;;;;;;20.90;54.90;;;;;;4145846;28;19924;-85
2023/09/02 12:10:29;;;;;;;;;;;21.00;54.10;;;;;;4147718;28;20022;-87
2023/09/02 12:12:48;;;;;;;;;;;21.00;55.00;;;;;;4144530;28;20085;-87
2023/09/02 12:15:13;;;;;;;;;;;21.10;55.00;;;;;;4144682;28;19922;-85
2023/09/02 12:17:32;;;;;;;;;;;21.10;55.00;;;;;;4147526;28;19995;-85
2023/09/02 12:19:51;;;;;;;;;;;21.10;54.70;;;;;;4148633;28;19928;-86
2023/09/02 12:22:11;;;;;;;;;;;21.10;53.40;;;;;;4136987;28;19923;-85
2023/09/02 12:24:11;;;;;;;;;;;21.30;53.90;;;;;;4146749;28;19926;-83
2023/09/02 12:26:13;;;;;;;;;;;21.20;53.30;;;;;;4157280;28;19925;-85
2023/09/02 12:28:14;;;;;;;;;;;21.30;53.30;;;;;;4147636;28;19989;-85
2023/09/02 12:30:27;;;;;;;;;;;21.20;53.10;;;;;;4146343;28;19920;-85
2023/09/02 12:32:48;;;;;;;;;;;21.20;53.20;;;;;;4146800;28;20389;-85
2023/09/02 12:34:48;;;;;;;;;;;21.20;53.40;;;;;;4146046;28;19948;-85
2023/09/02 12:37:16;;;;;;;;;;;21.20;53.30;;;;;;4143172;28;20761;-85
2023/09/02 12:39:37;;;;;;;;;;;21.30;53.70;;;;;;4148978;28;19944;-86
2023/09/02 12:42:00;;;;;;;;;;;21.30;53.70;;;;;;4149102;28;19920;-85
2023/09/02 12:44:20;;;;;;;;;;;21.30;53.60;;;;;;4148680;28;20007;-86
2023/09/02 12:46:45;;;;;;;;;;;21.30;53.70;;;;;;4144908;28;20014;-86
2023/09/02 12:49:05;;;;;;;;;;;21.30;52.80;;;;;;4144661;28;19972;-86
2023/09/02 12:51:29;;;;;;;;;;;21.40;53.20;;;;;;4146361;28;19921;-85
2023/09/02 12:53:50;;;;;;;;;;;21.40;51.80;;;;;;4146252;28;19917;-87
2023/09/02 12:56:11;;;;;;;;;;;21.40;51.80;;;;;;4152873;28;20007;-85
2023/09/02 12:58:31;;;;;;;;;;;21.50;52.60;;;;;;4148301;28;19945;-85
2023/09/02 13:00:52;;;;;;;;;;;21.50;51.10;;;;;;4145409;28;19952;-85
2023/09/02 13:03:12;;;;;;;;;;;21.50;50.90;;;;;;4147197;28;19932;-86
2023/09/02 13:05:34;;;;;;;;;;;21.50;51.80;;;;;;4140812;28;19932;-85
2023/09/02 13:07:54;;;;;;;;;;;21.60;52.10;;;;;;4145900;28;19924;-85